createdAt,value
2019-04-06T00:01:39.005Z,23.10
2019-04-06T00:04:09.614Z,23.00
2019-04-06T00:06:40.411Z,23.00
2019-04-06T00:09:11.374Z,23.10
2019-04-06T00:11:41.922Z,23.00
2019-04-06T00:14:12.399Z,23.00
2019-04-06T00:16:43.184Z,23.00
2019-04-06T00:19:13.969Z,23.00
2019-04-06T00:21:44.544Z,23.00
2019-04-06T00:24:15.118Z,23.00
2019-04-06T00:26:45.894Z,23.00
2019-04-06T00:29:16.694Z,23.00
2019-04-06T00:31:54.747Z,23.00
2019-04-06T00:34:25.579Z,23.00
2019-04-06T00:36:56.330Z,23.00
2019-04-06T00:39:27.099Z,23.00
2019-04-06T00:41:57.753Z,23.00
2019-04-06T00:44:28.311Z,23.00
2019-04-06T00:46:58.845Z,23.00
2019-04-06T00:49:29.593Z,23.00
2019-04-06T00:52:00.352Z,23.00
2019-04-06T00:54:31.080Z,23.00
2019-04-06T00:57:01.860Z,23.00
2019-04-06T00:59:32.656Z,23.00
2019-04-06T01:02:04.164Z,23.00
2019-04-06T01:04:34.712Z,23.00
2019-04-06T01:07:05.484Z,23.00
2019-04-06T01:09:36.374Z,23.00
2019-04-06T01:12:07.046Z,23.00
2019-04-06T01:14:37.659Z,23.00
2019-04-06T01:17:08.489Z,23.00
2019-04-06T01:19:39.013Z,23.00
2019-04-06T01:22:09.533Z,23.00
2019-04-06T01:24:40.206Z,23.00
2019-04-06T01:27:10.963Z,23.00
2019-04-06T01:29:41.648Z,23.00
2019-04-06T01:32:12.378Z,23.00
2019-04-06T01:34:43.154Z,23.00
2019-04-06T01:37:13.880Z,23.00
2019-04-06T01:39:44.470Z,23.00
2019-04-06T01:42:15.246Z,23.00
2019-04-06T01:44:45.949Z,23.00
2019-04-06T01:47:16.714Z,22.90
2019-04-06T01:49:47.418Z,23.00
2019-04-06T01:52:18.189Z,22.90
2019-04-06T01:54:48.972Z,22.90
2019-04-06T01:57:19.580Z,23.00
2019-04-06T01:59:50.296Z,23.00
2019-04-06T02:02:25.700Z,23.00
2019-04-06T02:04:56.359Z,23.00
2019-04-06T02:07:26.931Z,22.90
2019-04-06T02:09:57.543Z,22.90
2019-04-06T02:12:28.104Z,22.90
2019-04-06T02:14:58.798Z,22.90
2019-04-06T02:17:29.285Z,23.00
2019-04-06T02:19:59.991Z,23.00
2019-04-06T02:22:30.464Z,23.00
2019-04-06T02:25:01.275Z,23.00
2019-04-06T02:27:31.967Z,23.00
2019-04-06T02:30:39.927Z,23.00
2019-04-06T02:33:32.459Z,22.90
2019-04-06T02:36:24.501Z,23.00
2019-04-06T02:39:13.259Z,22.90
2019-04-06T02:41:51.673Z,22.90
2019-04-06T02:44:22.587Z,22.90
2019-04-06T02:46:53.107Z,22.90
2019-04-06T02:49:23.906Z,22.90
2019-04-06T02:51:54.544Z,22.90
2019-04-06T02:54:25.370Z,22.90
2019-04-06T02:56:56.034Z,22.90
2019-04-06T02:59:26.717Z,22.90
2019-04-06T03:01:57.963Z,22.90
2019-04-06T03:04:28.838Z,22.90
2019-04-06T03:06:59.530Z,22.90
2019-04-06T03:09:30.265Z,22.90
2019-04-06T03:12:00.906Z,22.90
2019-04-06T03:14:31.760Z,22.90
2019-04-06T03:17:02.473Z,22.90
2019-04-06T03:19:33.271Z,22.90
2019-04-06T03:22:03.933Z,22.90
2019-04-06T03:24:34.725Z,22.90
2019-04-06T03:27:05.640Z,22.90
2019-04-06T03:29:36.126Z,22.90
2019-04-06T03:32:06.732Z,22.90
2019-04-06T03:34:37.850Z,22.90
2019-04-06T03:37:08.580Z,22.90
2019-04-06T03:39:39.148Z,22.90
2019-04-06T03:42:11.134Z,22.90
2019-04-06T03:44:42.068Z,22.90
2019-04-06T03:47:13.359Z,22.90
2019-04-06T03:49:46.487Z,22.90
2019-04-06T03:52:17.269Z,22.90
2019-04-06T03:54:48.320Z,22.90
2019-04-06T03:57:19.307Z,22.90
2019-04-06T03:59:50.147Z,22.90
2019-04-06T04:02:20.938Z,22.90
2019-04-06T04:04:52.877Z,22.90
2019-04-06T04:07:25.047Z,22.90
2019-04-06T04:09:56.621Z,22.90
2019-04-06T04:12:29.230Z,22.90
2019-04-06T04:14:59.960Z,22.90
2019-04-06T04:17:31.030Z,22.90
2019-04-06T04:20:02.240Z,22.90
2019-04-06T04:22:35.190Z,22.90
2019-04-06T04:25:05.948Z,22.90
2019-04-06T04:27:40.919Z,22.90
2019-04-06T04:30:14.824Z,22.90
2019-04-06T04:32:44.454Z,22.90
2019-04-06T04:35:18.150Z,22.80
2019-04-06T04:37:47.585Z,22.80
2019-04-06T04:40:19.478Z,22.90
2019-04-06T04:42:50.046Z,22.80
2019-04-06T04:45:20.719Z,22.80
2019-04-06T04:47:51.338Z,22.80
2019-04-06T04:50:22.001Z,22.80
2019-04-06T04:52:52.615Z,22.90
2019-04-06T04:55:23.475Z,22.90
2019-04-06T04:57:54.276Z,22.90
2019-04-06T05:00:24.934Z,22.90
2019-04-06T05:02:55.860Z,22.90
2019-04-06T05:05:26.434Z,22.90
2019-04-06T05:07:57.102Z,22.90
2019-04-06T05:10:27.787Z,22.80
2019-04-06T05:12:58.422Z,22.80
2019-04-06T05:16:09.927Z,22.80
2019-04-06T05:18:41.373Z,22.80
2019-04-06T05:21:11.917Z,22.80
2019-04-06T05:23:42.519Z,22.80
2019-04-06T05:26:13.433Z,22.80
2019-04-06T05:28:44.043Z,22.80
2019-04-06T05:31:14.658Z,22.80
2019-04-06T05:33:45.345Z,22.80
2019-04-06T05:36:16.061Z,22.80
2019-04-06T05:38:46.671Z,22.80
2019-04-06T05:41:17.529Z,22.80
2019-04-06T05:43:48.155Z,22.80
2019-04-06T05:46:19.112Z,22.80
2019-04-06T05:48:51.037Z,22.80
2019-04-06T05:51:21.705Z,22.80
2019-04-06T05:53:53.109Z,22.80
2019-04-06T05:56:23.932Z,22.80
2019-04-06T05:58:54.686Z,22.80
2019-04-06T06:01:25.570Z,22.80
2019-04-06T06:03:56.578Z,22.80
2019-04-06T06:06:32.231Z,22.80
2019-04-06T06:09:04.190Z,22.80
2019-04-06T06:11:36.610Z,22.80
2019-04-06T06:14:07.677Z,22.80
2019-04-06T06:16:38.446Z,22.80
2019-04-06T06:19:09.204Z,22.80
2019-04-06T06:21:40.933Z,22.80
2019-04-06T06:24:12.141Z,22.90
2019-04-06T06:26:43.344Z,22.90
2019-04-06T06:29:15.253Z,22.90
2019-04-06T06:31:46.113Z,22.90
2019-04-06T06:34:16.810Z,23.00
2019-04-06T06:36:47.402Z,23.00
2019-04-06T06:39:18.346Z,23.00
2019-04-06T06:41:49.761Z,23.00
2019-04-06T06:44:20.954Z,23.00
2019-04-06T06:46:55.137Z,23.00
2019-04-06T06:49:26.119Z,23.00
2019-04-06T06:51:57.626Z,22.90
2019-04-06T06:54:29.530Z,22.90
2019-04-06T06:57:02.423Z,22.80
2019-04-06T06:59:33.123Z,22.80
2019-04-06T07:02:03.863Z,22.70
2019-04-06T07:04:34.666Z,22.70
2019-04-06T07:07:05.457Z,22.70
2019-04-06T07:09:35.931Z,22.70
2019-04-06T07:12:06.701Z,22.60
2019-04-06T07:14:37.505Z,22.60
2019-04-06T07:17:08.300Z,22.50
2019-04-06T07:19:38.995Z,22.50
2019-04-06T07:22:09.689Z,22.50
2019-04-06T07:24:40.639Z,22.50
2019-04-06T07:27:11.310Z,22.60
2019-04-06T07:29:56.613Z,22.60
2019-04-06T07:32:33.797Z,22.60
2019-04-06T07:35:04.826Z,22.60
2019-04-06T07:37:35.571Z,22.60
2019-04-06T07:40:07.278Z,22.60
2019-04-06T07:42:37.818Z,22.70
2019-04-06T07:45:08.711Z,22.70
2019-04-06T07:47:39.360Z,22.70
2019-04-06T07:50:11.152Z,22.60
2019-04-06T07:52:42.045Z,22.50
2019-04-06T07:55:12.603Z,22.50
2019-04-06T07:57:43.314Z,22.50
2019-04-06T08:00:14.064Z,22.50
2019-04-06T08:02:44.651Z,22.50
2019-04-06T08:05:15.236Z,22.50
2019-04-06T08:07:46.162Z,22.40
2019-04-06T08:10:16.892Z,22.50
2019-04-06T08:12:47.635Z,22.40
2019-04-06T08:15:18.617Z,22.40
2019-04-06T08:17:49.401Z,22.40
2019-04-06T08:20:20.179Z,22.50
2019-04-06T08:22:51.024Z,22.50
2019-04-06T08:25:21.673Z,22.50
2019-04-06T08:27:52.334Z,22.50
2019-04-06T08:30:23.249Z,22.50
2019-04-06T08:32:54.086Z,22.50
2019-04-06T08:35:26.443Z,22.50
2019-04-06T08:37:57.195Z,22.50
2019-04-06T08:40:30.385Z,22.50
2019-04-06T08:43:01.220Z,22.50
2019-04-06T08:45:32.007Z,22.50
2019-04-06T08:48:02.653Z,22.50
2019-04-06T08:50:33.314Z,22.50
2019-04-06T08:53:03.996Z,22.50
2019-04-06T08:55:34.721Z,22.60
2019-04-06T08:58:05.246Z,22.60
2019-04-06T09:00:35.872Z,22.60
2019-04-06T09:03:06.649Z,22.60
2019-04-06T09:05:37.408Z,22.60
2019-04-06T09:08:08.159Z,22.60
2019-04-06T09:10:38.724Z,22.60
2019-04-06T09:13:09.639Z,22.60
2019-04-06T09:15:40.563Z,22.60
2019-04-06T09:18:11.623Z,22.60
2019-04-06T09:20:42.154Z,22.60
2019-04-06T09:23:13.084Z,22.60
2019-04-06T09:25:43.808Z,22.60
2019-04-06T09:28:14.580Z,22.60
2019-04-06T09:30:45.470Z,22.60
2019-04-06T09:33:15.968Z,22.60
2019-04-06T09:35:46.888Z,22.60
2019-04-06T09:38:20.220Z,22.50
2019-04-06T09:40:51.390Z,22.60
2019-04-06T09:43:22.770Z,22.60
2019-04-06T09:46:10.050Z,22.60
2019-04-06T09:48:48.548Z,22.60
2019-04-06T09:51:37.256Z,22.60
2019-04-06T09:54:21.652Z,22.60
2019-04-06T09:57:00.434Z,22.60
2019-04-06T09:59:43.743Z,22.60
2019-04-06T10:02:26.152Z,22.70
2019-04-06T10:05:21.822Z,22.70
2019-04-06T10:08:17.258Z,22.70
2019-04-06T10:11:03.933Z,22.60
2019-04-06T10:13:43.580Z,22.60
2019-04-06T10:16:32.318Z,22.70
2019-04-06T10:19:22.173Z,22.70
2019-04-06T10:22:10.414Z,22.60
2019-04-06T10:24:54.555Z,22.60
2019-04-06T10:27:56.257Z,22.60
2019-04-06T10:30:44.501Z,22.60
2019-04-06T10:33:37.142Z,22.60
2019-04-06T10:36:27.052Z,22.60
2019-04-06T10:39:16.880Z,22.60
2019-04-06T10:42:00.008Z,22.70
2019-04-06T10:45:05.912Z,22.70
2019-04-06T10:47:50.312Z,22.70
2019-04-06T10:50:59.495Z,22.70
2019-04-06T10:53:46.252Z,22.70
2019-04-06T10:56:34.052Z,22.70
2019-04-06T10:59:22.134Z,22.60
2019-04-06T11:02:28.312Z,22.70
2019-04-06T11:05:18.720Z,22.70
2019-04-06T11:08:01.499Z,22.60
2019-04-06T11:10:45.034Z,22.60
2019-04-06T11:13:36.908Z,22.60
2019-04-06T11:16:26.664Z,22.60
2019-04-06T11:19:28.966Z,22.50
2019-04-06T11:22:07.005Z,22.60
2019-04-06T11:24:55.932Z,22.60
2019-04-06T11:27:51.945Z,22.60
2019-04-06T11:30:29.416Z,22.60
2019-04-06T11:33:22.933Z,22.70
2019-04-06T11:36:11.324Z,22.60
2019-04-06T11:38:59.415Z,22.70
2019-04-06T11:41:41.037Z,22.70
2019-04-06T11:44:29.971Z,22.70
2019-04-06T11:47:22.664Z,22.70
2019-04-06T11:50:12.800Z,22.80
2019-04-06T11:53:02.892Z,22.70
2019-04-06T11:55:45.604Z,22.70
2019-04-06T11:58:22.771Z,22.70
2019-04-06T12:01:12.178Z,22.70
2019-04-06T12:03:54.161Z,22.60
2019-04-06T12:06:31.407Z,22.70
2019-04-06T12:09:36.908Z,22.80
2019-04-06T12:12:32.955Z,23.10
2019-04-06T12:15:29.027Z,23.20
2019-04-06T12:18:20.557Z,23.30
2019-04-06T12:21:10.659Z,23.50
2019-04-06T12:23:56.143Z,23.50
2019-04-06T12:26:38.535Z,23.50
2019-04-06T12:29:32.121Z,23.40
2019-04-06T12:32:21.198Z,23.30
2019-04-06T12:35:16.889Z,23.30
2019-04-06T12:38:06.877Z,23.20
2019-04-06T12:40:45.930Z,23.20
2019-04-06T12:43:42.704Z,23.10
2019-04-06T12:46:23.724Z,23.10
2019-04-06T12:49:13.254Z,23.10
2019-04-06T12:52:08.495Z,23.10
2019-04-06T12:55:02.794Z,23.10
2019-04-06T12:58:00.237Z,23.10
2019-04-06T13:01:07.853Z,23.00
2019-04-06T13:03:58.519Z,23.00
2019-04-06T13:07:00.186Z,23.00
2019-04-06T13:09:58.498Z,23.00
2019-04-06T13:13:01.585Z,23.00
2019-04-06T13:15:50.611Z,23.00
2019-04-06T13:18:46.414Z,23.00
2019-04-06T13:21:34.973Z,23.00
2019-04-06T13:24:10.749Z,23.00
2019-04-06T13:26:48.295Z,23.00
2019-04-06T13:29:36.772Z,22.90
2019-04-06T13:32:30.858Z,22.90
2019-04-06T13:35:19.674Z,22.90
2019-04-06T13:37:58.988Z,22.90
2019-04-06T13:41:05.477Z,22.90
2019-04-06T13:44:01.315Z,22.90
2019-04-06T13:46:51.578Z,22.90
2019-04-06T13:49:50.922Z,22.90
2019-04-06T13:52:35.723Z,22.90
2019-04-06T13:55:25.773Z,22.90
2019-04-06T13:58:16.571Z,22.90
2019-04-06T14:00:54.999Z,22.90
2019-04-06T14:03:42.996Z,22.90
2019-04-06T14:06:31.460Z,22.90
2019-04-06T14:09:15.229Z,22.90
2019-04-06T14:12:08.250Z,22.90
2019-04-06T14:14:48.969Z,22.90
2019-04-06T14:17:45.318Z,22.90
2019-04-06T14:20:33.808Z,23.00
2019-04-06T14:23:38.808Z,23.10
2019-04-06T14:26:22.764Z,23.00
2019-04-06T14:29:15.973Z,23.10
2019-04-06T14:32:09.111Z,23.00
2019-04-06T14:34:59.464Z,23.00
2019-04-06T14:37:49.224Z,23.10
2019-04-06T14:40:44.659Z,23.20
2019-04-06T14:43:34.413Z,23.20
2019-04-06T14:46:26.774Z,23.20
2019-04-06T14:49:28.504Z,23.20
2019-04-06T14:52:07.515Z,23.20
2019-04-06T14:54:46.967Z,23.10
2019-04-06T14:57:36.726Z,23.10
2019-04-06T15:00:39.058Z,23.10
2019-04-06T15:03:31.346Z,23.10
2019-04-06T15:06:36.142Z,23.10
2019-04-06T15:09:20.099Z,23.10
2019-04-06T15:12:15.939Z,23.00
2019-04-06T15:15:00.814Z,23.00
2019-04-06T15:17:37.977Z,23.00
2019-04-06T15:20:26.073Z,23.00
2019-04-06T15:23:14.731Z,23.00
2019-04-06T15:25:57.974Z,23.00
2019-04-06T15:28:53.941Z,23.00
2019-04-06T15:31:43.136Z,23.00
2019-04-06T15:34:26.185Z,23.00
2019-04-06T15:37:15.847Z,23.00
2019-04-06T15:40:11.454Z,23.00
2019-04-06T15:43:10.533Z,23.00
2019-04-06T15:46:03.215Z,23.00
2019-04-06T15:48:51.657Z,23.00
2019-04-06T15:51:31.657Z,23.00
2019-04-06T15:54:23.960Z,23.00
2019-04-06T15:57:08.704Z,22.90
2019-04-06T15:59:48.892Z,22.90
2019-04-06T16:02:53.693Z,22.90
2019-04-06T16:05:46.338Z,23.00
2019-04-06T16:08:27.594Z,23.00
2019-04-06T16:11:20.803Z,22.90
2019-04-06T16:14:05.140Z,22.90
2019-04-06T16:17:00.592Z,22.90
2019-04-06T16:19:59.358Z,22.90
2019-04-06T16:22:58.214Z,22.90
2019-04-06T16:25:53.699Z,22.90
2019-04-06T16:28:35.848Z,22.90
2019-04-06T16:31:32.213Z,22.90
2019-04-06T16:34:26.756Z,22.90
2019-04-06T16:37:15.665Z,22.90
2019-04-06T16:40:21.388Z,22.90
2019-04-06T16:43:20.573Z,22.90
2019-04-06T16:46:14.006Z,22.90
2019-04-06T16:49:01.286Z,22.90
2019-04-06T16:51:42.017Z,22.90
2019-04-06T16:54:30.398Z,22.90
2019-04-06T16:57:12.531Z,22.90
2019-04-06T17:00:18.341Z,22.90
2019-04-06T17:02:49.937Z,22.90
2019-04-06T17:05:35.005Z,22.80
2019-04-06T17:08:24.133Z,22.90
2019-04-06T17:11:12.872Z,22.80
2019-04-06T17:13:52.350Z,22.90
2019-04-06T17:16:42.355Z,22.90
2019-04-06T17:19:33.666Z,22.80
2019-04-06T17:22:24.554Z,22.80
2019-04-06T17:25:10.581Z,22.80
2019-04-06T17:28:00.533Z,22.90
2019-04-06T17:30:48.565Z,22.80
2019-04-06T17:33:41.464Z,22.90
2019-04-06T17:36:22.571Z,22.90
2019-04-06T17:39:27.486Z,23.10
2019-04-06T17:42:06.906Z,23.30
2019-04-06T17:44:56.975Z,23.30
2019-04-06T17:47:46.377Z,23.30
2019-04-06T17:50:36.406Z,23.30
2019-04-06T17:53:35.383Z,23.20
2019-04-06T17:56:23.422Z,23.20
2019-04-06T17:59:24.727Z,23.10
2019-04-06T18:02:23.805Z,23.10
2019-04-06T18:05:01.037Z,23.00
2019-04-06T18:07:44.140Z,23.00
2019-04-06T18:10:40.119Z,23.00
2019-04-06T18:13:20.067Z,23.00
2019-04-06T18:15:51.224Z,23.00
2019-04-06T18:18:22.326Z,23.00
2019-04-06T18:20:53.043Z,23.00
2019-04-06T18:23:23.841Z,23.00
2019-04-06T18:25:54.652Z,23.00
2019-04-06T18:28:26.705Z,23.00
2019-04-06T18:31:22.632Z,23.00
2019-04-06T18:33:53.808Z,23.00
2019-04-06T18:36:27.691Z,23.00
2019-04-06T18:39:02.711Z,23.00
2019-04-06T18:41:34.672Z,23.00
2019-04-06T18:44:06.948Z,23.00
2019-04-06T18:46:40.847Z,22.90
2019-04-06T18:49:13.251Z,22.90
2019-04-06T18:51:45.467Z,23.00
2019-04-06T18:54:17.738Z,23.00
2019-04-06T18:56:49.558Z,23.00
2019-04-06T18:59:23.184Z,23.00
2019-04-06T19:01:55.166Z,23.00
2019-04-06T19:04:29.355Z,23.00
2019-04-06T19:07:00.658Z,22.90
2019-04-06T19:09:32.827Z,22.90
2019-04-06T19:12:05.295Z,23.00
2019-04-06T19:14:37.237Z,23.00
2019-04-06T19:17:09.088Z,23.00
2019-04-06T19:19:41.027Z,23.00
2019-04-06T19:22:11.975Z,23.00
2019-04-06T19:24:42.831Z,23.00
2019-04-06T19:27:13.717Z,23.00
2019-04-06T19:29:44.536Z,23.00
2019-04-06T19:32:15.225Z,23.00
2019-04-06T19:34:46.434Z,22.90
2019-04-06T19:37:17.236Z,22.90
2019-04-06T19:39:47.911Z,22.90
2019-04-06T19:42:18.565Z,22.90
2019-04-06T19:44:49.413Z,22.90
2019-04-06T19:47:20.232Z,22.90
2019-04-06T19:49:50.769Z,22.90
2019-04-06T19:52:21.664Z,22.90
2019-04-06T19:54:52.252Z,23.00
2019-04-06T19:57:22.828Z,23.00
2019-04-06T19:59:53.809Z,23.00
2019-04-06T20:02:24.409Z,23.00
2019-04-06T20:04:55.097Z,23.00
2019-04-06T20:07:25.796Z,23.10
2019-04-06T20:09:56.784Z,23.10
2019-04-06T20:12:27.439Z,23.20
2019-04-06T20:14:58.302Z,23.20
2019-04-06T20:17:28.850Z,23.30
2019-04-06T20:20:00.169Z,23.30
2019-04-06T20:22:30.789Z,23.30
2019-04-06T20:25:02.099Z,23.40
2019-04-06T20:27:32.633Z,23.30
2019-04-06T20:30:04.519Z,23.30
2019-04-06T20:32:35.553Z,23.40
2019-04-06T20:35:06.959Z,23.30
2019-04-06T20:37:37.547Z,23.30
2019-04-06T20:40:08.761Z,23.30
2019-04-06T20:42:39.538Z,23.40
2019-04-06T20:45:10.439Z,23.40
2019-04-06T20:47:41.049Z,23.40
2019-04-06T20:50:11.849Z,23.40
2019-04-06T20:52:42.876Z,23.30
2019-04-06T20:55:13.235Z,23.30
2019-04-06T20:57:43.868Z,23.30
2019-04-06T21:00:14.315Z,23.30
2019-04-06T21:02:45.283Z,23.30
2019-04-06T21:05:16.218Z,23.30
2019-04-06T21:07:47.117Z,23.20
2019-04-06T21:10:17.684Z,23.20
2019-04-06T21:12:48.608Z,23.20
2019-04-06T21:15:21.126Z,23.20
2019-04-06T21:17:51.800Z,23.20
2019-04-06T21:20:23.153Z,23.20
2019-04-06T21:22:53.873Z,23.20
2019-04-06T21:25:24.849Z,23.20
2019-04-06T21:27:55.583Z,23.20
2019-04-06T21:30:26.336Z,23.20
2019-04-06T21:32:57.170Z,23.10
2019-04-06T21:35:29.027Z,23.10
2019-04-06T21:38:00.764Z,23.20
2019-04-06T21:40:31.698Z,23.20
2019-04-06T21:43:03.128Z,23.20
2019-04-06T21:45:34.422Z,23.10
2019-04-06T21:48:05.806Z,23.10
2019-04-06T21:50:36.520Z,23.10
2019-04-06T21:53:07.158Z,23.10
2019-04-06T21:55:37.849Z,23.10
2019-04-06T21:58:08.711Z,23.10
2019-04-06T22:00:56.699Z,23.10
2019-04-06T22:03:28.165Z,23.10
2019-04-06T22:05:58.914Z,23.00
2019-04-06T22:08:30.534Z,23.00
2019-04-06T22:11:02.622Z,23.00
2019-04-06T22:13:35.407Z,23.00
2019-04-06T22:16:07.657Z,23.00
2019-04-06T22:18:39.486Z,23.00
2019-04-06T22:21:11.382Z,23.00
2019-04-06T22:23:45.066Z,23.00
2019-04-06T22:26:17.153Z,23.00
2019-04-06T22:28:49.197Z,23.00
2019-04-06T22:31:21.301Z,22.90
2019-04-06T22:33:53.481Z,22.90
2019-04-06T22:36:26.720Z,22.90
2019-04-06T22:39:00.624Z,22.90
2019-04-06T22:41:33.322Z,22.90
2019-04-06T22:44:05.832Z,23.00
2019-04-06T22:46:37.325Z,23.00
2019-04-06T22:49:09.360Z,23.00
2019-04-06T22:51:40.622Z,23.00
2019-04-06T22:54:11.735Z,23.00
2019-04-06T22:56:45.336Z,23.00
2019-04-06T22:59:16.648Z,23.00
2019-04-06T23:01:48.296Z,23.00
2019-04-06T23:04:50.311Z,23.00
2019-04-06T23:07:21.657Z,23.00
2019-04-06T23:09:54.144Z,22.90
2019-04-06T23:12:24.844Z,22.90
2019-04-06T23:14:56.477Z,22.90
2019-04-06T23:17:28.195Z,22.90
2019-04-06T23:20:01.204Z,22.90
2019-04-06T23:22:33.390Z,22.90
2019-04-06T23:25:04.697Z,23.00
2019-04-06T23:27:35.489Z,23.00
2019-04-06T23:30:06.715Z,23.00
2019-04-06T23:32:37.451Z,22.90
2019-04-06T23:35:08.300Z,22.90
2019-04-06T23:37:39.215Z,22.90
2019-04-06T23:40:10.044Z,22.90
2019-04-06T23:42:40.691Z,22.90
2019-04-06T23:45:11.552Z,22.90
2019-04-06T23:47:42.059Z,22.80
2019-04-06T23:50:13.268Z,22.90
2019-04-06T23:52:44.395Z,22.90
2019-04-06T23:55:16.262Z,22.80
2019-04-06T23:57:46.924Z,22.80
